sensor_id;sensor_type;location;lat;lon;timestamp;temperature;humidity
20068;DHT22;10194;50.824;7.134;2024-01-11T00:00:33;-6.00;99.90
20068;DHT22;10194;50.824;7.134;2024-01-11T00:02:58;-6.00;99.90
20068;DHT22;10194;50.824;7.134;2024-01-11T00:05:24;-6.00;99.90
20068;DHT22;10194;50.824;7.134;2024-01-11T00:07:50;-6.00;99.90
20068;DHT22;10194;50.824;7.134;2024-01-11T00:10:16;-6.00;99.90
20068;DHT22;10194;50.824;7.134;2024-01-11T00:12:41;-6.00;99.90
20068;DHT22;10194;50.824;7.134;2024-01-11T00:15:07;-6.00;99.90
20068;DHT22;10194;50.824;7.134;2024-01-11T00:17:33;-6.00;99.90
20068;DHT22;10194;50.824;7.134;2024-01-11T00:20:00;-6.00;99.90
20068;DHT22;10194;50.824;7.134;2024-01-11T00:22:26;-6.00;99.90
20068;DHT22;10194;50.824;7.134;2024-01-11T00:24:52;-6.10;99.90
20068;DHT22;10194;50.824;7.134;2024-01-11T00:27:18;-6.10;99.90
20068;DHT22;10194;50.824;7.134;2024-01-11T00:29:44;-6.10;99.90
20068;DHT22;10194;50.824;7.134;2024-01-11T00:32:10;-6.10;99.90
20068;DHT22;10194;50.824;7.134;2024-01-11T00:34:35;-6.10;99.90
20068;DHT22;10194;50.824;7.134;2024-01-11T00:37:02;-6.20;99.90
20068;DHT22;10194;50.824;7.134;2024-01-11T00:39:28;-6.20;99.90
20068;DHT22;10194;50.824;7.134;2024-01-11T00:41:54;-6.20;99.90
20068;DHT22;10194;50.824;7.134;2024-01-11T00:44:20;-6.20;99.90
20068;DHT22;10194;50.824;7.134;2024-01-11T00:46:46;-6.10;99.90
20068;DHT22;10194;50.824;7.134;2024-01-11T00:49:12;-6.00;99.90
20068;DHT22;10194;50.824;7.134;2024-01-11T00:51:38;-6.00;99.90
20068;DHT22;10194;50.824;7.134;2024-01-11T00:54:03;-6.00;99.90
20068;DHT22;10194;50.824;7.134;2024-01-11T00:56:29;-6.00;99.90
20068;DHT22;10194;50.824;7.134;2024-01-11T00:58:55;-6.10;99.90
20068;DHT22;10194;50.824;7.134;2024-01-11T01:01:21;-6.00;99.90
20068;DHT22;10194;50.824;7.134;2024-01-11T01:03:46;-6.00;99.90
20068;DHT22;10194;50.824;7.134;2024-01-11T01:06:12;-6.10;99.90
20068;DHT22;10194;50.824;7.134;2024-01-11T01:08:38;-6.10;99.90
20068;DHT22;10194;50.824;7.134;2024-01-11T01:11:04;-6.10;99.90
20068;DHT22;10194;50.824;7.134;2024-01-11T01:13:29;-6.10;99.90
20068;DHT22;10194;50.824;7.134;2024-01-11T01:15:55;-6.10;99.90
20068;DHT22;10194;50.824;7.134;2024-01-11T01:18:21;-6.10;99.90
20068;DHT22;10194;50.824;7.134;2024-01-11T01:20:47;-6.10;99.90
20068;DHT22;10194;50.824;7.134;2024-01-11T01:23:13;-6.00;99.90
20068;DHT22;10194;50.824;7.134;2024-01-11T01:25:38;-6.10;99.90
20068;DHT22;10194;50.824;7.134;2024-01-11T01:28:05;-6.10;99.90
20068;DHT22;10194;50.824;7.134;2024-01-11T01:30:31;-6.00;99.90
20068;DHT22;10194;50.824;7.134;2024-01-11T01:32:56;-5.90;99.90
20068;DHT22;10194;50.824;7.134;2024-01-11T01:35:22;-5.90;99.90
20068;DHT22;10194;50.824;7.134;2024-01-11T01:37:48;-6.00;99.90
20068;DHT22;10194;50.824;7.134;2024-01-11T01:40:14;-6.10;99.90
20068;DHT22;10194;50.824;7.134;2024-01-11T01:42:43;-6.00;99.90
20068;DHT22;10194;50.824;7.134;2024-01-11T01:45:10;-6.00;99.90
20068;DHT22;10194;50.824;7.134;2024-01-11T01:47:40;-6.10;99.90
20068;DHT22;10194;50.824;7.134;2024-01-11T01:50:07;-6.00;99.90
20068;DHT22;10194;50.824;7.134;2024-01-11T01:52:34;-6.10;99.90
20068;DHT22;10194;50.824;7.134;2024-01-11T01:55:01;-6.20;99.90
20068;DHT22;10194;50.824;7.134;2024-01-11T01:57:28;-6.20;99.90
20068;DHT22;10194;50.824;7.134;2024-01-11T01:59:55;-6.20;99.90
20068;DHT22;10194;50.824;7.134;2024-01-11T02:02:21;-6.20;99.90
20068;DHT22;10194;50.824;7.134;2024-01-11T02:04:47;-6.30;99.90
20068;DHT22;10194;50.824;7.134;2024-01-11T02:07:13;-6.20;99.90
20068;DHT22;10194;50.824;7.134;2024-01-11T02:09:40;-6.20;99.90
20068;DHT22;10194;50.824;7.134;2024-01-11T02:12:06;-6.30;99.90
20068;DHT22;10194;50.824;7.134;2024-01-11T02:14:39;-6.30;99.90
20068;DHT22;10194;50.824;7.134;2024-01-11T02:17:05;-6.20;99.90
20068;DHT22;10194;50.824;7.134;2024-01-11T02:19:31;-6.30;99.90
20068;DHT22;10194;50.824;7.134;2024-01-11T02:22:02;-6.30;99.90
20068;DHT22;10194;50.824;7.134;2024-01-11T02:24:31;-6.40;99.90
20068;DHT22;10194;50.824;7.134;2024-01-11T02:26:59;-6.40;99.90
20068;DHT22;10194;50.824;7.134;2024-01-11T02:29:26;-6.30;99.90
20068;DHT22;10194;50.824;7.134;2024-01-11T02:31:52;-6.40;99.90
20068;DHT22;10194;50.824;7.134;2024-01-11T02:34:18;-6.40;99.90
20068;DHT22;10194;50.824;7.134;2024-01-11T02:36:45;-6.40;99.90
20068;DHT22;10194;50.824;7.134;2024-01-11T02:39:12;-6.40;99.90
20068;DHT22;10194;50.824;7.134;2024-01-11T02:41:39;-6.40;99.90
20068;DHT22;10194;50.824;7.134;2024-01-11T02:44:06;-6.40;99.90
20068;DHT22;10194;50.824;7.134;2024-01-11T02:46:32;-6.50;99.90
20068;DHT22;10194;50.824;7.134;2024-01-11T02:48:58;-6.50;99.90
20068;DHT22;10194;50.824;7.134;2024-01-11T02:51:24;-6.50;99.90
20068;DHT22;10194;50.824;7.134;2024-01-11T02:53:49;-6.40;99.90
20068;DHT22;10194;50.824;7.134;2024-01-11T02:56:15;-6.40;99.90
20068;DHT22;10194;50.824;7.134;2024-01-11T02:58:41;-6.40;99.90
20068;DHT22;10194;50.824;7.134;2024-01-11T03:01:06;-6.50;99.90
20068;DHT22;10194;50.824;7.134;2024-01-11T03:03:32;-6.50;99.90
20068;DHT22;10194;50.824;7.134;2024-01-11T03:05:58;-6.60;99.90
20068;DHT22;10194;50.824;7.134;2024-01-11T03:08:24;-6.60;99.90
20068;DHT22;10194;50.824;7.134;2024-01-11T03:10:49;-6.60;99.90
20068;DHT22;10194;50.824;7.134;2024-01-11T03:13:15;-6.60;99.90
20068;DHT22;10194;50.824;7.134;2024-01-11T03:15:41;-6.50;99.90
20068;DHT22;10194;50.824;7.134;2024-01-11T03:18:07;-6.50;99.90
20068;DHT22;10194;50.824;7.134;2024-01-11T03:20:32;-6.50;99.90
20068;DHT22;10194;50.824;7.134;2024-01-11T03:22:58;-6.50;99.90
20068;DHT22;10194;50.824;7.134;2024-01-11T03:25:24;-6.60;99.90
20068;DHT22;10194;50.824;7.134;2024-01-11T03:27:50;-6.50;99.90
20068;DHT22;10194;50.824;7.134;2024-01-11T03:30:15;-6.50;99.90
20068;DHT22;10194;50.824;7.134;2024-01-11T03:32:41;-6.50;99.90
20068;DHT22;10194;50.824;7.134;2024-01-11T03:35:08;-6.70;99.90
20068;DHT22;10194;50.824;7.134;2024-01-11T03:37:34;-6.70;99.90
20068;DHT22;10194;50.824;7.134;2024-01-11T03:40:02;-6.70;99.90
20068;DHT22;10194;50.824;7.134;2024-01-11T03:42:28;-6.70;99.90
20068;DHT22;10194;50.824;7.134;2024-01-11T03:44:54;-6.60;99.90
20068;DHT22;10194;50.824;7.134;2024-01-11T03:47:21;-6.70;99.90
20068;DHT22;10194;50.824;7.134;2024-01-11T03:49:47;-6.70;99.90
20068;DHT22;10194;50.824;7.134;2024-01-11T03:52:13;-6.70;99.90
20068;DHT22;10194;50.824;7.134;2024-01-11T03:54:38;-6.80;99.90
20068;DHT22;10194;50.824;7.134;2024-01-11T03:57:04;-6.80;99.90
20068;DHT22;10194;50.824;7.134;2024-01-11T03:59:31;-6.80;99.90
20068;DHT22;10194;50.824;7.134;2024-01-11T04:01:57;-6.70;99.90
20068;DHT22;10194;50.824;7.134;2024-01-11T04:04:23;-6.60;99.90
20068;DHT22;10194;50.824;7.134;2024-01-11T04:06:49;-6.60;99.90
20068;DHT22;10194;50.824;7.134;2024-01-11T04:09:15;-6.60;99.90
20068;DHT22;10194;50.824;7.134;2024-01-11T04:11:41;-6.80;99.90
20068;DHT22;10194;50.824;7.134;2024-01-11T04:14:06;-6.80;99.90
20068;DHT22;10194;50.824;7.134;2024-01-11T04:16:32;-6.80;99.90
20068;DHT22;10194;50.824;7.134;2024-01-11T04:18:58;-6.80;99.90
20068;DHT22;10194;50.824;7.134;2024-01-11T04:21:26;-6.80;99.90
20068;DHT22;10194;50.824;7.134;2024-01-11T04:23:56;-6.70;99.90
20068;DHT22;10194;50.824;7.134;2024-01-11T04:26:22;-6.70;99.90
20068;DHT22;10194;50.824;7.134;2024-01-11T04:28:49;-6.70;99.90
20068;DHT22;10194;50.824;7.134;2024-01-11T04:31:15;-6.80;99.90
20068;DHT22;10194;50.824;7.134;2024-01-11T04:33:44;-6.80;99.90
20068;DHT22;10194;50.824;7.134;2024-01-11T04:36:10;-6.80;99.90
20068;DHT22;10194;50.824;7.134;2024-01-11T04:38:37;-6.90;99.90
20068;DHT22;10194;50.824;7.134;2024-01-11T04:41:14;-6.90;99.90
20068;DHT22;10194;50.824;7.134;2024-01-11T04:43:41;-6.90;99.90
20068;DHT22;10194;50.824;7.134;2024-01-11T04:46:21;-7.00;99.90
20068;DHT22;10194;50.824;7.134;2024-01-11T04:48:48;-7.00;99.90
20068;DHT22;10194;50.824;7.134;2024-01-11T04:51:15;-7.00;99.90
20068;DHT22;10194;50.824;7.134;2024-01-11T04:53:43;-7.00;99.90
20068;DHT22;10194;50.824;7.134;2024-01-11T04:56:12;-7.00;99.90
20068;DHT22;10194;50.824;7.134;2024-01-11T04:58:41;-7.00;99.90
20068;DHT22;10194;50.824;7.134;2024-01-11T05:01:11;-7.10;99.90
20068;DHT22;10194;50.824;7.134;2024-01-11T05:03:44;-7.10;99.90
20068;DHT22;10194;50.824;7.134;2024-01-11T05:06:21;-7.10;99.90
20068;DHT22;10194;50.824;7.134;2024-01-11T05:08:49;-7.10;99.90
20068;DHT22;10194;50.824;7.134;2024-01-11T05:11:18;-7.10;99.90
20068;DHT22;10194;50.824;7.134;2024-01-11T05:13:44;-7.00;99.90
20068;DHT22;10194;50.824;7.134;2024-01-11T05:16:23;-7.10;99.90
20068;DHT22;10194;50.824;7.134;2024-01-11T05:18:51;-7.10;99.90
20068;DHT22;10194;50.824;7.134;2024-01-11T05:21:18;-7.10;99.90
20068;DHT22;10194;50.824;7.134;2024-01-11T05:23:44;-7.00;99.90
20068;DHT22;10194;50.824;7.134;2024-01-11T05:26:13;-7.10;99.90
20068;DHT22;10194;50.824;7.134;2024-01-11T05:28:39;-7.10;99.90
20068;DHT22;10194;50.824;7.134;2024-01-11T05:31:12;-7.20;99.90
20068;DHT22;10194;50.824;7.134;2024-01-11T05:33:40;-7.10;99.90
20068;DHT22;10194;50.824;7.134;2024-01-11T05:36:06;-7.10;99.90
20068;DHT22;10194;50.824;7.134;2024-01-11T05:38:32;-7.10;99.90
20068;DHT22;10194;50.824;7.134;2024-01-11T05:40:58;-7.10;99.90
20068;DHT22;10194;50.824;7.134;2024-01-11T05:43:24;-7.20;99.90
20068;DHT22;10194;50.824;7.134;2024-01-11T05:45:50;-7.20;99.90
20068;DHT22;10194;50.824;7.134;2024-01-11T05:48:17;-7.20;99.90
20068;DHT22;10194;50.824;7.134;2024-01-11T05:50:46;-7.20;99.90
20068;DHT22;10194;50.824;7.134;2024-01-11T05:53:12;-7.20;99.90
20068;DHT22;10194;50.824;7.134;2024-01-11T05:55:38;-7.30;99.90
20068;DHT22;10194;50.824;7.134;2024-01-11T05:58:04;-7.30;99.90
20068;DHT22;10194;50.824;7.134;2024-01-11T06:00:30;-7.30;99.90
20068;DHT22;10194;50.824;7.134;2024-01-11T06:02:56;-7.40;99.90
20068;DHT22;10194;50.824;7.134;2024-01-11T06:05:22;-7.30;99.90
20068;DHT22;10194;50.824;7.134;2024-01-11T06:07:48;-7.40;99.90
20068;DHT22;10194;50.824;7.134;2024-01-11T06:10:16;-7.30;99.90
20068;DHT22;10194;50.824;7.134;2024-01-11T06:12:42;-7.30;99.90
20068;DHT22;10194;50.824;7.134;2024-01-11T06:15:08;-7.30;99.90
20068;DHT22;10194;50.824;7.134;2024-01-11T06:17:35;-7.30;99.90
20068;DHT22;10194;50.824;7.134;2024-01-11T06:20:01;-7.40;99.90
20068;DHT22;10194;50.824;7.134;2024-01-11T06:22:27;-7.30;99.90
20068;DHT22;10194;50.824;7.134;2024-01-11T06:24:53;-7.30;99.90
20068;DHT22;10194;50.824;7.134;2024-01-11T06:27:18;-7.30;99.90
20068;DHT22;10194;50.824;7.134;2024-01-11T06:29:44;-7.30;99.90
20068;DHT22;10194;50.824;7.134;2024-01-11T06:32:10;-7.30;99.90
20068;DHT22;10194;50.824;7.134;2024-01-11T06:34:36;-7.40;99.90
20068;DHT22;10194;50.824;7.134;2024-01-11T06:37:02;-7.50;99.90
20068;DHT22;10194;50.824;7.134;2024-01-11T06:39:29;-7.50;99.90
20068;DHT22;10194;50.824;7.134;2024-01-11T06:41:55;-7.40;99.90
20068;DHT22;10194;50.824;7.134;2024-01-11T06:44:21;-7.40;99.90
20068;DHT22;10194;50.824;7.134;2024-01-11T06:46:47;-7.50;99.90
20068;DHT22;10194;50.824;7.134;2024-01-11T06:49:12;-7.50;99.90
20068;DHT22;10194;50.824;7.134;2024-01-11T06:51:38;-7.60;99.90
20068;DHT22;10194;50.824;7.134;2024-01-11T06:54:05;-7.60;99.90
20068;DHT22;10194;50.824;7.134;2024-01-11T06:56:30;-7.60;99.90
20068;DHT22;10194;50.824;7.134;2024-01-11T06:58:56;-7.60;99.90
20068;DHT22;10194;50.824;7.134;2024-01-11T07:01:22;-7.50;99.90
20068;DHT22;10194;50.824;7.134;2024-01-11T07:03:48;-7.50;99.90
20068;DHT22;10194;50.824;7.134;2024-01-11T07:06:15;-7.60;99.90
20068;DHT22;10194;50.824;7.134;2024-01-11T07:08:41;-7.60;99.90
20068;DHT22;10194;50.824;7.134;2024-01-11T07:11:06;-7.50;99.90
20068;DHT22;10194;50.824;7.134;2024-01-11T07:13:33;-7.50;99.90
20068;DHT22;10194;50.824;7.134;2024-01-11T07:15:58;-7.40;99.90
20068;DHT22;10194;50.824;7.134;2024-01-11T07:18:25;-7.40;99.90
20068;DHT22;10194;50.824;7.134;2024-01-11T07:20:58;-7.30;99.90
20068;DHT22;10194;50.824;7.134;2024-01-11T07:23:24;-7.40;99.90
20068;DHT22;10194;50.824;7.134;2024-01-11T07:25:50;-7.50;99.90
20068;DHT22;10194;50.824;7.134;2024-01-11T07:28:17;-7.50;99.90
20068;DHT22;10194;50.824;7.134;2024-01-11T07:30:43;-7.40;99.90
20068;DHT22;10194;50.824;7.134;2024-01-11T07:33:08;-7.40;99.90
20068;DHT22;10194;50.824;7.134;2024-01-11T07:35:35;-7.40;99.90
20068;DHT22;10194;50.824;7.134;2024-01-11T07:38:01;-7.30;99.90
20068;DHT22;10194;50.824;7.134;2024-01-11T07:40:26;-7.30;99.90
20068;DHT22;10194;50.824;7.134;2024-01-11T07:42:52;-7.30;99.90
20068;DHT22;10194;50.824;7.134;2024-01-11T07:45:18;-7.40;99.90
20068;DHT22;10194;50.824;7.134;2024-01-11T07:47:44;-7.40;99.90
20068;DHT22;10194;50.824;7.134;2024-01-11T07:50:10;-7.30;99.90
20068;DHT22;10194;50.824;7.134;2024-01-11T07:52:36;-7.30;99.90
20068;DHT22;10194;50.824;7.134;2024-01-11T07:55:05;-7.30;99.90
20068;DHT22;10194;50.824;7.134;2024-01-11T07:57:37;-7.30;99.90
20068;DHT22;10194;50.824;7.134;2024-01-11T08:00:06;-7.30;99.90
20068;DHT22;10194;50.824;7.134;2024-01-11T08:02:33;-7.30;99.90
20068;DHT22;10194;50.824;7.134;2024-01-11T08:04:59;-7.20;99.90
20068;DHT22;10194;50.824;7.134;2024-01-11T08:07:28;-7.20;99.90
20068;DHT22;10194;50.824;7.134;2024-01-11T08:09:54;-7.00;99.90
20068;DHT22;10194;50.824;7.134;2024-01-11T08:12:20;-7.00;99.90
20068;DHT22;10194;50.824;7.134;2024-01-11T08:14:46;-7.00;99.90
20068;DHT22;10194;50.824;7.134;2024-01-11T08:17:13;-7.00;99.90
20068;DHT22;10194;50.824;7.134;2024-01-11T08:19:40;-6.90;99.90
20068;DHT22;10194;50.824;7.134;2024-01-11T08:22:06;-6.90;99.90
20068;DHT22;10194;50.824;7.134;2024-01-11T08:24:32;-6.90;99.90
20068;DHT22;10194;50.824;7.134;2024-01-11T08:27:00;-6.80;99.90
20068;DHT22;10194;50.824;7.134;2024-01-11T08:29:25;-6.70;99.90
20068;DHT22;10194;50.824;7.134;2024-01-11T08:31:51;-6.60;99.90
20068;DHT22;10194;50.824;7.134;2024-01-11T08:34:17;-6.60;99.90
20068;DHT22;10194;50.824;7.134;2024-01-11T08:36:43;-6.60;99.90
20068;DHT22;10194;50.824;7.134;2024-01-11T08:39:08;-6.50;99.90
20068;DHT22;10194;50.824;7.134;2024-01-11T08:41:37;-6.40;99.90
20068;DHT22;10194;50.824;7.134;2024-01-11T08:44:05;-6.40;99.90
20068;DHT22;10194;50.824;7.134;2024-01-11T08:46:31;-6.30;99.90
20068;DHT22;10194;50.824;7.134;2024-01-11T08:48:59;-6.20;99.90
20068;DHT22;10194;50.824;7.134;2024-01-11T08:51:27;-6.20;99.90
20068;DHT22;10194;50.824;7.134;2024-01-11T08:53:52;-6.10;99.90
20068;DHT22;10194;50.824;7.134;2024-01-11T08:56:18;-6.10;99.90
20068;DHT22;10194;50.824;7.134;2024-01-11T08:58:44;-6.00;99.90
20068;DHT22;10194;50.824;7.134;2024-01-11T09:01:11;-5.80;99.90
20068;DHT22;10194;50.824;7.134;2024-01-11T09:03:36;-5.70;99.90
20068;DHT22;10194;50.824;7.134;2024-01-11T09:06:03;-5.70;99.90
20068;DHT22;10194;50.824;7.134;2024-01-11T09:08:29;-5.60;99.90
20068;DHT22;10194;50.824;7.134;2024-01-11T09:10:56;-5.50;99.90
20068;DHT22;10194;50.824;7.134;2024-01-11T09:13:24;-5.40;99.90
20068;DHT22;10194;50.824;7.134;2024-01-11T09:15:52;-5.30;99.90
20068;DHT22;10194;50.824;7.134;2024-01-11T09:18:19;-5.20;99.90
20068;DHT22;10194;50.824;7.134;2024-01-11T09:20:46;-5.20;99.90
20068;DHT22;10194;50.824;7.134;2024-01-11T09:23:13;-5.10;99.90
20068;DHT22;10194;50.824;7.134;2024-01-11T09:25:40;-5.00;99.90
20068;DHT22;10194;50.824;7.134;2024-01-11T09:28:06;-5.00;99.90
20068;DHT22;10194;50.824;7.134;2024-01-11T09:30:32;-4.90;99.90
20068;DHT22;10194;50.824;7.134;2024-01-11T09:32:58;-4.80;99.90
20068;DHT22;10194;50.824;7.134;2024-01-11T09:35:24;-4.80;99.90
20068;DHT22;10194;50.824;7.134;2024-01-11T09:37:51;-4.80;99.90
20068;DHT22;10194;50.824;7.134;2024-01-11T09:40:19;-4.70;99.90
20068;DHT22;10194;50.824;7.134;2024-01-11T09:42:45;-4.60;99.90
20068;DHT22;10194;50.824;7.134;2024-01-11T09:45:16;-4.60;99.90
20068;DHT22;10194;50.824;7.134;2024-01-11T09:47:43;-4.50;99.90
20068;DHT22;10194;50.824;7.134;2024-01-11T09:50:11;-4.40;99.90
20068;DHT22;10194;50.824;7.134;2024-01-11T09:52:49;-4.40;99.90
20068;DHT22;10194;50.824;7.134;2024-01-11T09:55:16;-4.40;99.90
20068;DHT22;10194;50.824;7.134;2024-01-11T09:57:47;-4.30;99.90
20068;DHT22;10194;50.824;7.134;2024-01-11T10:00:17;-4.30;99.90
20068;DHT22;10194;50.824;7.134;2024-01-11T10:02:48;-4.20;99.90
20068;DHT22;10194;50.824;7.134;2024-01-11T10:05:14;-4.00;99.90
20068;DHT22;10194;50.824;7.134;2024-01-11T10:07:41;-4.10;99.90
20068;DHT22;10194;50.824;7.134;2024-01-11T10:10:08;-4.10;99.90
20068;DHT22;10194;50.824;7.134;2024-01-11T10:12:37;-4.00;99.90
20068;DHT22;10194;50.824;7.134;2024-01-11T10:15:10;-3.90;99.90
20068;DHT22;10194;50.824;7.134;2024-01-11T10:17:40;-3.80;99.90
20068;DHT22;10194;50.824;7.134;2024-01-11T10:20:11;-3.80;99.90
20068;DHT22;10194;50.824;7.134;2024-01-11T10:22:45;-3.80;99.90
20068;DHT22;10194;50.824;7.134;2024-01-11T10:25:17;-3.80;99.90
20068;DHT22;10194;50.824;7.134;2024-01-11T10:27:44;-3.80;99.90
20068;DHT22;10194;50.824;7.134;2024-01-11T10:30:15;-3.70;99.90
20068;DHT22;10194;50.824;7.134;2024-01-11T10:32:43;-3.70;99.90
20068;DHT22;10194;50.824;7.134;2024-01-11T10:35:09;-3.70;99.90
20068;DHT22;10194;50.824;7.134;2024-01-11T10:37:37;-3.60;99.90
20068;DHT22;10194;50.824;7.134;2024-01-11T10:40:08;-3.50;99.90
20068;DHT22;10194;50.824;7.134;2024-01-11T10:42:45;-3.50;99.90
20068;DHT22;10194;50.824;7.134;2024-01-11T10:45:16;-3.40;99.90
20068;DHT22;10194;50.824;7.134;2024-01-11T10:48:21;-3.30;99.90
20068;DHT22;10194;50.824;7.134;2024-01-11T10:50:45;-3.30;99.90
20068;DHT22;10194;50.824;7.134;2024-01-11T10:53:31;-3.20;99.90
20068;DHT22;10194;50.824;7.134;2024-01-11T10:56:11;-3.20;99.90
20068;DHT22;10194;50.824;7.134;2024-01-11T10:58:40;-3.10;99.90
20068;DHT22;10194;50.824;7.134;2024-01-11T11:01:07;-3.00;99.90
20068;DHT22;10194;50.824;7.134;2024-01-11T11:03:38;-3.00;99.90
20068;DHT22;10194;50.824;7.134;2024-01-11T11:06:07;-3.00;99.90
20068;DHT22;10194;50.824;7.134;2024-01-11T11:08:34;-2.90;99.90
20068;DHT22;10194;50.824;7.134;2024-01-11T11:11:03;-2.80;99.90
20068;DHT22;10194;50.824;7.134;2024-01-11T11:13:32;-2.80;99.90
20068;DHT22;10194;50.824;7.134;2024-01-11T11:16:00;-2.70;99.90
20068;DHT22;10194;50.824;7.134;2024-01-11T11:18:27;-2.60;99.90
20068;DHT22;10194;50.824;7.134;2024-01-11T11:20:53;-2.50;99.90
20068;DHT22;10194;50.824;7.134;2024-01-11T11:23:19;-2.50;99.90
20068;DHT22;10194;50.824;7.134;2024-01-11T11:25:47;-2.30;99.90
20068;DHT22;10194;50.824;7.134;2024-01-11T11:28:17;-2.30;99.90
20068;DHT22;10194;50.824;7.134;2024-01-11T11:30:44;-2.20;99.90
20068;DHT22;10194;50.824;7.134;2024-01-11T11:33:18;-2.20;99.90
20068;DHT22;10194;50.824;7.134;2024-01-11T11:35:46;-2.10;99.90
20068;DHT22;10194;50.824;7.134;2024-01-11T11:38:18;-2.00;99.90
20068;DHT22;10194;50.824;7.134;2024-01-11T11:40:48;-2.00;99.90
20068;DHT22;10194;50.824;7.134;2024-01-11T11:43:17;-2.00;99.90
20068;DHT22;10194;50.824;7.134;2024-01-11T11:45:44;-1.90;99.90
20068;DHT22;10194;50.824;7.134;2024-01-11T11:51:17;-1.80;99.90
20068;DHT22;10194;50.824;7.134;2024-01-11T11:53:47;-1.70;99.90
20068;DHT22;10194;50.824;7.134;2024-01-11T11:56:15;-1.70;99.90
20068;DHT22;10194;50.824;7.134;2024-01-11T11:58:43;-1.70;99.90
20068;DHT22;10194;50.824;7.134;2024-01-11T12:01:09;-1.70;99.90
20068;DHT22;10194;50.824;7.134;2024-01-11T12:03:45;-1.70;99.90
20068;DHT22;10194;50.824;7.134;2024-01-11T12:06:19;-1.60;99.90
20068;DHT22;10194;50.824;7.134;2024-01-11T12:08:47;-1.60;99.90
20068;DHT22;10194;50.824;7.134;2024-01-11T12:11:18;-1.50;99.90
20068;DHT22;10194;50.824;7.134;2024-01-11T12:13:46;-1.60;99.90
20068;DHT22;10194;50.824;7.134;2024-01-11T12:16:13;-1.40;99.90
20068;DHT22;10194;50.824;7.134;2024-01-11T12:18:40;-1.40;99.90
20068;DHT22;10194;50.824;7.134;2024-01-11T12:21:07;-1.40;99.90
20068;DHT22;10194;50.824;7.134;2024-01-11T12:23:37;-1.40;99.90
20068;DHT22;10194;50.824;7.134;2024-01-11T12:26:06;-1.40;99.90
20068;DHT22;10194;50.824;7.134;2024-01-11T12:28:37;-1.30;99.90
20068;DHT22;10194;50.824;7.134;2024-01-11T12:31:03;-1.30;99.90
20068;DHT22;10194;50.824;7.134;2024-01-11T12:33:29;-1.30;99.90
20068;DHT22;10194;50.824;7.134;2024-01-11T12:35:55;-1.20;99.90
20068;DHT22;10194;50.824;7.134;2024-01-11T12:38:21;-1.20;99.90
20068;DHT22;10194;50.824;7.134;2024-01-11T12:40:47;-1.10;99.90
20068;DHT22;10194;50.824;7.134;2024-01-11T12:43:13;-1.10;99.90
20068;DHT22;10194;50.824;7.134;2024-01-11T12:45:41;-1.10;99.90
20068;DHT22;10194;50.824;7.134;2024-01-11T12:48:07;-1.10;99.90
20068;DHT22;10194;50.824;7.134;2024-01-11T12:50:34;-1.00;99.90
20068;DHT22;10194;50.824;7.134;2024-01-11T12:53:15;-0.90;99.90
20068;DHT22;10194;50.824;7.134;2024-01-11T12:55:48;-0.90;99.90
20068;DHT22;10194;50.824;7.134;2024-01-11T12:58:20;-0.80;99.90
20068;DHT22;10194;50.824;7.134;2024-01-11T13:00:51;-0.70;99.90
20068;DHT22;10194;50.824;7.134;2024-01-11T13:03:17;-0.70;99.90
20068;DHT22;10194;50.824;7.134;2024-01-11T13:05:47;-0.60;99.90
20068;DHT22;10194;50.824;7.134;2024-01-11T13:08:13;-0.60;99.90
20068;DHT22;10194;50.824;7.134;2024-01-11T13:10:39;-0.70;99.90
20068;DHT22;10194;50.824;7.134;2024-01-11T13:13:05;-0.60;99.90
20068;DHT22;10194;50.824;7.134;2024-01-11T13:15:31;-0.60;99.90
20068;DHT22;10194;50.824;7.134;2024-01-11T13:17:59;-0.50;99.90
20068;DHT22;10194;50.824;7.134;2024-01-11T13:20:25;-0.50;99.90
20068;DHT22;10194;50.824;7.134;2024-01-11T13:23:15;-0.30;99.90
20068;DHT22;10194;50.824;7.134;2024-01-11T13:25:48;-0.40;99.90
20068;DHT22;10194;50.824;7.134;2024-01-11T13:28:17;-0.30;99.90
20068;DHT22;10194;50.824;7.134;2024-01-11T13:30:44;-0.30;99.90
20068;DHT22;10194;50.824;7.134;2024-01-11T13:33:12;-0.30;99.90
20068;DHT22;10194;50.824;7.134;2024-01-11T13:35:39;-0.20;99.90
20068;DHT22;10194;50.824;7.134;2024-01-11T13:38:06;-0.20;99.90
20068;DHT22;10194;50.824;7.134;2024-01-11T13:40:32;-0.20;99.90
20068;DHT22;10194;50.824;7.134;2024-01-11T13:42:59;-0.20;99.90
20068;DHT22;10194;50.824;7.134;2024-01-11T13:45:25;-0.20;99.90
20068;DHT22;10194;50.824;7.134;2024-01-11T13:47:52;-0.10;99.90
20068;DHT22;10194;50.824;7.134;2024-01-11T13:50:21;0.00;99.90
20068;DHT22;10194;50.824;7.134;2024-01-11T13:52:49;0.00;99.90
20068;DHT22;10194;50.824;7.134;2024-01-11T13:55:16;0.00;99.90
20068;DHT22;10194;50.824;7.134;2024-01-11T13:57:43;0.00;99.90
20068;DHT22;10194;50.824;7.134;2024-01-11T14:00:10;0.00;99.90
20068;DHT22;10194;50.824;7.134;2024-01-11T14:02:37;0.00;99.90
20068;DHT22;10194;50.824;7.134;2024-01-11T14:05:03;0.00;99.90
20068;DHT22;10194;50.824;7.134;2024-01-11T14:07:31;0.00;99.90
20068;DHT22;10194;50.824;7.134;2024-01-11T14:09:57;0.00;99.90
20068;DHT22;10194;50.824;7.134;2024-01-11T14:12:23;0.10;99.90
20068;DHT22;10194;50.824;7.134;2024-01-11T14:14:49;0.20;99.90
20068;DHT22;10194;50.824;7.134;2024-01-11T14:17:15;0.20;99.90
20068;DHT22;10194;50.824;7.134;2024-01-11T14:19:41;0.20;99.90
20068;DHT22;10194;50.824;7.134;2024-01-11T14:22:07;0.20;99.90
20068;DHT22;10194;50.824;7.134;2024-01-11T14:24:32;0.20;99.90
20068;DHT22;10194;50.824;7.134;2024-01-11T14:26:59;0.20;99.90
20068;DHT22;10194;50.824;7.134;2024-01-11T14:29:25;0.20;99.90
20068;DHT22;10194;50.824;7.134;2024-01-11T14:31:51;0.20;99.90
20068;DHT22;10194;50.824;7.134;2024-01-11T14:34:17;0.20;99.90
20068;DHT22;10194;50.824;7.134;2024-01-11T14:36:43;0.20;99.90
20068;DHT22;10194;50.824;7.134;2024-01-11T14:39:08;0.20;99.90
20068;DHT22;10194;50.824;7.134;2024-01-11T14:41:35;0.20;99.90
20068;DHT22;10194;50.824;7.134;2024-01-11T14:44:02;0.20;99.90
20068;DHT22;10194;50.824;7.134;2024-01-11T14:46:29;0.20;99.90
20068;DHT22;10194;50.824;7.134;2024-01-11T14:48:55;0.20;99.90
20068;DHT22;10194;50.824;7.134;2024-01-11T14:51:21;0.20;99.90
20068;DHT22;10194;50.824;7.134;2024-01-11T14:53:47;0.10;99.90
20068;DHT22;10194;50.824;7.134;2024-01-11T14:56:13;0.30;99.90
20068;DHT22;10194;50.824;7.134;2024-01-11T14:58:39;0.20;99.90
20068;DHT22;10194;50.824;7.134;2024-01-11T15:01:04;0.10;99.90
20068;DHT22;10194;50.824;7.134;2024-01-11T15:03:30;0.10;99.90
20068;DHT22;10194;50.824;7.134;2024-01-11T15:05:56;0.00;99.90
20068;DHT22;10194;50.824;7.134;2024-01-11T15:08:22;0.00;99.90
20068;DHT22;10194;50.824;7.134;2024-01-11T15:10:48;0.00;99.90
20068;DHT22;10194;50.824;7.134;2024-01-11T15:13:14;0.00;99.90
20068;DHT22;10194;50.824;7.134;2024-01-11T15:15:40;-0.10;99.90
20068;DHT22;10194;50.824;7.134;2024-01-11T15:18:06;-0.10;99.90
20068;DHT22;10194;50.824;7.134;2024-01-11T15:20:32;-0.20;99.90
20068;DHT22;10194;50.824;7.134;2024-01-11T15:22:58;-0.20;99.90
20068;DHT22;10194;50.824;7.134;2024-01-11T15:25:24;-0.20;99.90
20068;DHT22;10194;50.824;7.134;2024-01-11T15:27:52;-0.20;99.90
20068;DHT22;10194;50.824;7.134;2024-01-11T15:30:19;-0.30;99.90
20068;DHT22;10194;50.824;7.134;2024-01-11T15:32:45;-0.40;99.90
20068;DHT22;10194;50.824;7.134;2024-01-11T15:35:11;-0.50;99.90